Time;durP1;ratioP1;P1;durP2;ratioP2;P2;SDS_P1;SDS_P2;PMS_P1;PMS_P2;Temp;Humidity;BMP_temperature;BMP_pressure;BME280_temperature;BME280_humidity;BME280_pressure;Samples;Min_cycle;Max_cycle;Signal;HPM_P1;HPM_P2
2021/07/24 00:00:00;;;;;;;0.45;0.45;;;22.70;70.70;;;;;;4191349;28;20045;-49
2021/07/24 00:02:22;;;;;;;0.75;0.75;;;22.70;70.80;;;;;;4191305;28;20063;-51
2021/07/24 00:04:44;;;;;;;0.32;0.32;;;22.70;70.80;;;;;;4191159;28;20059;-47
2021/07/24 00:07:06;;;;;;;0.10;0.10;;;22.70;70.80;;;;;;4191087;28;20486;-47
2021/07/24 00:09:30;;;;;;;0.28;0.28;;;22.70;70.90;;;;;;4206497;28;20051;-48
2021/07/24 00:11:52;;;;;;;0.10;0.10;;;22.70;70.90;;;;;;4207544;27;20513;-50
2021/07/24 00:14:14;;;;;;;8.60;1.15;;;22.70;70.90;;;;;;4207755;28;20486;-49
2021/07/24 00:16:37;;;;;;;0.10;0.10;;;22.70;71.00;;;;;;4207628;28;20064;-47
2021/07/24 00:18:58;;;;;;;0.10;0.10;;;22.70;71.00;;;;;;4191214;28;20636;-48
2021/07/24 00:21:21;;;;;;;0.28;0.28;;;22.70;71.10;;;;;;4191090;28;20055;-48
2021/07/24 00:23:43;;;;;;;0.00;0.00;;;22.70;71.10;;;;;;4191149;28;20044;-49
2021/07/24 00:26:07;;;;;;;0.25;0.25;;;22.70;72.00;;;;;;4190585;28;20407;-49
2021/07/24 00:28:29;;;;;;;0.52;0.52;;;22.70;71.20;;;;;;4190579;28;20452;-51
2021/07/24 00:30:51;;;;;;;0.03;0.03;;;22.60;71.10;;;;;;4190828;28;20143;-49
2021/07/24 00:33:20;;;;;;;0.20;0.20;;;22.60;71.20;;;;;;4189396;28;20060;-53
2021/07/24 00:35:42;;;;;;;0.32;0.32;;;22.60;71.20;;;;;;4189516;28;20135;-49
2021/07/24 00:38:07;;;;;;;0.35;0.35;;;22.60;71.20;;;;;;4190676;28;20106;-50
2021/07/24 00:40:37;;;;;;;0.13;0.13;;;22.60;71.20;;;;;;4190298;28;20056;-53
2021/07/24 00:43:03;;;;;;;0.10;0.10;;;22.60;71.20;;;;;;4190529;28;20055;-50
2021/07/24 00:45:30;;;;;;;0.57;0.57;;;22.60;71.30;;;;;;4189507;28;20139;-50
2021/07/24 00:47:55;;;;;;;0.10;0.10;;;22.60;71.30;;;;;;4189294;28;20115;-52
2021/07/24 00:50:48;;;;;;;0.15;0.15;;;22.60;71.30;;;;;;4201279;28;20410;-52
2021/07/24 00:53:20;;;;;;;0.20;0.20;;;22.60;71.40;;;;;;4209868;28;20048;-49
2021/07/24 00:55:48;;;;;;;0.00;0.00;;;22.60;71.50;;;;;;4210059;28;20051;-48
2021/07/24 00:58:25;;;;;;;0.00;0.00;;;22.60;71.50;;;;;;4210930;28;20062;-48
2021/07/24 01:00:47;;;;;;;2.72;1.13;;;22.50;71.50;;;;;;4210535;28;20506;-51
2021/07/24 01:03:09;;;;;;;1.98;1.23;;;22.50;71.50;;;;;;4210432;28;20051;-48
2021/07/24 01:05:31;;;;;;;0.10;0.10;;;22.50;71.60;;;;;;4209003;28;20082;-48
2021/07/24 01:07:54;;;;;;;0.00;0.00;;;22.50;71.70;;;;;;4208977;28;20414;-49
2021/07/24 01:10:18;;;;;;;0.17;0.17;;;22.50;71.70;;;;;;4210469;28;20512;-49
2021/07/24 01:12:46;;;;;;;0.10;0.10;;;22.50;72.70;;;;;;4206467;28;20043;-48
2021/07/24 01:15:11;;;;;;;0.10;0.10;;;22.50;71.80;;;;;;4192148;28;20049;-49
2021/07/24 01:17:34;;;;;;;0.10;0.10;;;22.50;71.80;;;;;;4193134;28;20145;-48
2021/07/24 01:19:56;;;;;;;0.28;0.28;;;22.50;71.80;;;;;;4193535;28;20072;-49
2021/07/24 01:22:20;;;;;;;0.00;0.00;;;22.40;71.70;;;;;;4193573;28;20135;-50
2021/07/24 01:24:43;;;;;;;0.00;0.00;;;22.50;72.70;;;;;;4209279;28;20711;-47
2021/07/24 01:27:08;;;;;;;0.52;0.52;;;22.40;71.80;;;;;;4210176;28;20475;-53
2021/07/24 01:29:32;;;;;;;0.17;0.17;;;22.40;71.80;;;;;;4209558;28;20067;-52
2021/07/24 01:31:57;;;;;;;0.00;0.00;;;22.40;71.80;;;;;;4208747;28;20098;-52
2021/07/24 01:34:21;;;;;;;0.50;0.50;;;22.40;72.70;;;;;;4210131;28;20079;-48
2021/07/24 01:36:43;;;;;;;0.10;0.10;;;22.40;71.80;;;;;;4210299;28;20093;-49
2021/07/24 01:39:10;;;;;;;0.20;0.20;;;22.40;71.80;;;;;;4209296;28;20466;-49
2021/07/24 01:41:34;;;;;;;0.05;0.05;;;22.40;71.90;;;;;;4209222;28;20048;-49
2021/07/24 01:43:58;;;;;;;0.00;0.00;;;22.40;72.70;;;;;;4208286;28;20409;-53
2021/07/24 01:46:20;;;;;;;0.00;0.00;;;22.40;71.90;;;;;;4210043;28;20121;-49
2021/07/24 01:52:46;;;;;;;0.00;0.00;;;22.40;71.90;;;;;;4204234;27;20040;-52
2021/07/24 01:54:52;;;;;;;0.10;0.10;;;22.30;71.90;;;;;;4192292;28;20052;-47
2021/07/24 01:57:16;;;;;;;0.73;0.68;;;22.30;71.90;;;;;;4191194;28;20419;-47
2021/07/24 01:59:52;;;;;;;0.00;0.00;;;22.30;71.90;;;;;;4191148;28;20148;-52
2021/07/24 02:02:16;;;;;;;0.00;0.00;;;22.30;72.00;;;;;;4192318;28;20121;-48
2021/07/24 02:04:43;;;;;;;0.10;0.10;;;22.30;72.00;;;;;;4191288;28;20079;-49
2021/07/24 02:07:06;;;;;;;0.00;0.00;;;22.30;72.00;;;;;;4191845;28;20068;-49
2021/07/24 02:09:58;;;;;;;0.40;0.40;;;22.30;72.00;;;;;;4206260;28;20525;-50
2021/07/24 02:12:34;;;;;;;0.30;0.30;;;22.30;72.10;;;;;;4207830;28;20575;-52
2021/07/24 02:14:58;;;;;;;1.27;0.30;;;22.20;72.00;;;;;;4208076;28;20048;-50
2021/07/24 02:17:26;;;;;;;0.35;0.35;;;22.20;72.10;;;;;;4207626;28;20075;-50
2021/07/24 02:19:50;;;;;;;0.30;0.30;;;22.20;72.10;;;;;;4207718;28;20486;-50
2021/07/24 02:22:13;;;;;;;0.20;0.20;;;22.20;72.10;;;;;;4192609;28;20052;-50
2021/07/24 02:24:46;;;;;;;0.03;0.03;;;22.20;72.10;;;;;;4195267;28;20117;-47
2021/07/24 02:27:11;;;;;;;0.00;0.00;;;22.20;72.20;;;;;;4209506;28;20047;-51
2021/07/24 02:29:37;;;;;;;0.80;0.80;;;22.20;72.10;;;;;;4209248;28;20055;-52
2021/07/24 02:32:03;;;;;;;1.13;1.02;;;22.20;72.10;;;;;;4207982;28;20677;-51
2021/07/24 02:34:26;;;;;;;0.00;0.00;;;22.10;72.10;;;;;;4236575;27;20096;-52
2021/07/24 02:36:48;;;;;;;0.00;0.00;;;22.20;72.20;;;;;;4209160;28;20048;-48
2021/07/24 02:39:10;;;;;;;0.30;0.30;;;22.10;72.10;;;;;;4208849;28;20048;-49
2021/07/24 02:41:32;;;;;;;2.92;0.52;;;22.20;72.10;;;;;;4192100;28;20048;-47
2021/07/24 02:43:56;;;;;;;0.00;0.00;;;22.10;72.10;;;;;;4192204;28;20075;-50
2021/07/24 02:46:19;;;;;;;1.27;0.47;;;22.10;72.10;;;;;;4192214;28;20435;-47
2021/07/24 02:48:45;;;;;;;0.38;0.38;;;22.10;72.10;;;;;;4198498;28;20059;-48
2021/07/24 02:51:33;;;;;;;0.10;0.10;;;22.10;72.10;;;;;;4208400;28;20177;-49
2021/07/24 02:53:57;;;;;;;0.08;0.08;;;22.10;72.10;;;;;;4205740;28;20449;-50
2021/07/24 02:56:20;;;;;;;0.32;0.32;;;22.10;72.10;;;;;;4207443;28;20044;-49
2021/07/24 02:58:42;;;;;;;0.13;0.13;;;22.10;72.10;;;;;;4190606;28;20145;-49
2021/07/24 03:01:08;;;;;;;1.65;0.52;;;22.10;72.10;;;;;;4191561;28;20483;-48
2021/07/24 03:03:30;;;;;;;0.00;0.00;;;22.00;72.00;;;;;;4192135;28;20117;-48
2021/07/24 03:05:52;;;;;;;0.55;0.55;;;22.00;72.90;;;;;;4191916;28;20056;-48
2021/07/24 03:08:14;;;;;;;0.00;0.00;;;22.00;72.00;;;;;;4191849;28;20818;-49
2021/07/24 03:10:36;;;;;;;0.22;0.22;;;22.10;72.10;;;;;;4204262;28;20044;-53
2021/07/24 03:12:58;;;;;;;3.38;0.77;;;22.10;72.10;;;;;;4208292;28;20059;-51
2021/07/24 03:15:20;;;;;;;0.00;0.00;;;22.00;72.00;;;;;;4207774;28;20097;-52
2021/07/24 03:17:43;;;;;;;0.10;0.10;;;22.00;72.00;;;;;;4206886;28;20544;-50
2021/07/24 03:20:07;;;;;;;0.00;0.00;;;22.00;72.00;;;;;;4208579;28;20051;-50
2021/07/24 03:22:29;;;;;;;0.13;0.13;;;22.00;72.00;;;;;;4208471;28;20055;-47
2021/07/24 03:24:51;;;;;;;0.30;0.30;;;22.00;72.00;;;;;;4208355;28;20089;-49
2021/07/24 03:27:16;;;;;;;0.20;0.20;;;22.00;72.00;;;;;;4208160;28;20048;-49
2021/07/24 03:29:39;;;;;;;0.25;0.25;;;22.00;72.00;;;;;;4207905;28;20056;-48
2021/07/24 03:32:01;;;;;;;0.10;0.10;;;22.00;72.00;;;;;;4208244;28;20111;-47
2021/07/24 03:34:24;;;;;;;0.30;0.30;;;22.00;72.10;;;;;;4208091;28;20101;-49
2021/07/24 03:36:46;;;;;;;0.10;0.10;;;22.00;72.10;;;;;;4208178;28;20083;-47
2021/07/24 03:39:08;;;;;;;0.10;0.10;;;21.90;72.00;;;;;;4207419;28;20506;-47
2021/07/24 03:41:33;;;;;;;0.00;0.00;;;21.90;72.00;;;;;;4208464;28;20485;-47
2021/07/24 03:43:55;;;;;;;0.00;0.00;;;21.90;71.90;;;;;;4207845;28;20060;-48
2021/07/24 03:46:19;;;;;;;0.20;0.15;;;22.00;72.00;;;;;;4206202;28;20048;-52
2021/07/24 03:48:41;;;;;;;22.35;1.10;;;21.90;71.90;;;;;;4208125;28;20225;-53
2021/07/24 03:51:04;;;;;;;0.15;0.15;;;21.90;71.90;;;;;;4207716;28;20501;-52
2021/07/24 03:53:26;;;;;;;0.45;0.45;;;21.90;71.90;;;;;;4208013;28;20058;-52
2021/07/24 03:55:51;;;;;;;0.50;0.50;;;21.90;72.00;;;;;;4191247;28;20052;-51
2021/07/24 03:58:13;;;;;;;0.05;0.05;;;21.90;72.00;;;;;;4187157;28;20102;-50
2021/07/24 04:00:40;;;;;;;0.40;0.40;;;21.90;72.00;;;;;;4190881;28;20135;-51
2021/07/24 04:03:02;;;;;;;0.00;0.00;;;21.90;72.00;;;;;;4191341;28;20473;-51
2021/07/24 04:05:25;;;;;;;2.17;1.17;;;21.90;72.00;;;;;;4206868;28;20105;-51
2021/07/24 04:07:48;;;;;;;0.00;0.00;;;21.90;72.00;;;;;;4207651;28;20044;-48
2021/07/24 04:10:12;;;;;;;2.30;0.65;;;21.90;72.00;;;;;;4207062;28;20051;-50
2021/07/24 04:12:35;;;;;;;0.00;0.00;;;21.90;72.10;;;;;;4207732;28;20081;-49
2021/07/24 04:14:59;;;;;;;0.10;0.10;;;21.80;72.10;;;;;;4207533;28;20051;-47
2021/07/24 04:17:22;;;;;;;0.00;0.00;;;21.80;72.10;;;;;;4207917;28;20048;-47
2021/07/24 04:19:44;;;;;;;0.00;0.00;;;21.80;72.10;;;;;;4207980;28;20048;-49
2021/07/24 04:22:06;;;;;;;0.03;0.03;;;21.80;72.10;;;;;;4207872;28;20133;-47
2021/07/24 04:24:30;;;;;;;0.40;0.40;;;21.80;72.10;;;;;;4207454;28;20132;-50
2021/07/24 04:26:52;;;;;;;0.17;0.17;;;21.80;72.10;;;;;;4210689;28;20047;-51
2021/07/24 04:29:14;;;;;;;0.10;0.10;;;21.80;72.10;;;;;;4209658;28;20044;-49
2021/07/24 04:31:37;;;;;;;0.00;0.00;;;21.80;72.10;;;;;;4210957;28;20418;-50
2021/07/24 04:33:59;;;;;;;0.10;0.10;;;21.80;72.00;;;;;;4194435;28;20721;-52
2021/07/24 04:36:22;;;;;;;0.35;0.35;;;21.80;72.00;;;;;;4194313;28;20151;-52
2021/07/24 04:38:44;;;;;;;0.38;0.38;;;21.80;72.00;;;;;;4184964;28;20056;-47
2021/07/24 04:41:07;;;;;;;0.10;0.10;;;21.80;71.90;;;;;;4194026;28;20059;-52
2021/07/24 04:43:29;;;;;;;0.00;0.00;;;21.80;72.80;;;;;;4193953;28;20124;-49
2021/07/24 04:45:51;;;;;;;0.25;0.25;;;21.80;71.90;;;;;;4193977;28;20044;-48
2021/07/24 04:48:13;;;;;;;0.30;0.30;;;21.80;71.90;;;;;;4193814;28;20101;-49
2021/07/24 04:50:35;;;;;;;0.15;0.15;;;21.90;71.90;;;;;;4187669;28;20052;-47
2021/07/24 04:52:58;;;;;;;0.13;0.13;;;21.80;71.90;;;;;;4193710;28;20143;-48
2021/07/24 04:55:20;;;;;;;0.40;0.40;;;21.80;71.90;;;;;;4193956;28;20458;-46
2021/07/24 04:57:44;;;;;;;0.10;0.10;;;21.80;71.80;;;;;;4192418;28;20445;-49
2021/07/24 05:00:08;;;;;;;0.17;0.17;;;21.80;71.80;;;;;;4193879;28;20052;-49
2021/07/24 05:02:31;;;;;;;0.10;0.10;;;21.80;71.80;;;;;;4209323;28;20044;-49
2021/07/24 05:04:54;;;;;;;0.00;0.00;;;21.80;71.80;;;;;;4210575;28;20052;-49
2021/07/24 05:07:18;;;;;;;0.80;0.65;;;21.80;71.90;;;;;;4210192;28;20044;-51
2021/07/24 05:09:41;;;;;;;3.75;0.52;;;21.80;71.90;;;;;;4210298;27;20072;-51
2021/07/24 05:12:03;;;;;;;0.68;0.68;;;21.80;71.90;;;;;;4210608;28;20089;-48
2021/07/24 05:14:27;;;;;;;0.57;0.57;;;21.80;71.90;;;;;;4210380;28;20413;-47
2021/07/24 05:16:49;;;;;;;0.10;0.10;;;21.80;71.90;;;;;;4210445;28;20040;-50
2021/07/24 05:19:11;;;;;;;0.38;0.38;;;21.80;72.20;;;;;;4209967;28;20071;-47
2021/07/24 05:21:33;;;;;;;1.15;1.08;;;21.90;72.20;;;;;;4209903;28;20547;-44
2021/07/24 05:23:55;;;;;;;1.55;0.43;;;21.90;72.10;;;;;;4210007;28;20505;-50
2021/07/24 05:26:17;;;;;;;3.08;1.95;;;21.90;72.80;;;;;;4210179;28;20090;-50
2021/07/24 05:28:39;;;;;;;0.35;0.35;;;21.90;71.80;;;;;;4210116;28;20417;-51
2021/07/24 05:31:03;;;;;;;1.92;1.80;;;21.90;72.50;;;;;;4209953;28;20048;-50
2021/07/24 05:33:25;;;;;;;0.20;0.20;;;21.90;71.60;;;;;;4210336;28;20490;-48
2021/07/24 05:35:48;;;;;;;0.10;0.10;;;21.90;71.60;;;;;;4209758;28;20048;-48
2021/07/24 05:38:10;;;;;;;0.20;0.20;;;21.90;71.60;;;;;;4207219;28;20052;-50
2021/07/24 05:40:32;;;;;;;0.90;0.55;;;21.80;71.50;;;;;;4208344;28;20464;-47
2021/07/24 05:42:59;;;;;;;0.10;0.10;;;21.80;71.50;;;;;;4209889;28;20436;-49
2021/07/24 05:45:23;;;;;;;0.47;0.47;;;21.80;71.50;;;;;;4209383;28;20059;-45
2021/07/24 05:47:46;;;;;;;0.77;0.77;;;21.80;71.50;;;;;;4209809;28;20071;-46
2021/07/24 05:50:09;;;;;;;0.10;0.10;;;21.90;71.50;;;;;;4209700;28;20047;-52
2021/07/24 05:52:32;;;;;;;0.65;0.63;;;21.80;71.50;;;;;;4209324;28;20051;-52
2021/07/24 05:54:53;;;;;;;0.80;0.45;;;21.90;71.50;;;;;;4193128;28;20056;-47
2021/07/24 05:57:16;;;;;;;0.20;0.20;;;21.80;71.40;;;;;;4193000;28;20048;-47
2021/07/24 05:59:39;;;;;;;0.05;0.05;;;21.90;71.50;;;;;;4193028;28;20056;-55
2021/07/24 06:02:04;;;;;;;0.00;0.00;;;21.80;71.50;;;;;;4192850;28;20052;-47
2021/07/24 06:04:27;;;;;;;0.43;0.43;;;21.80;71.50;;;;;;4192963;28;20558;-48
2021/07/24 06:06:49;;;;;;;0.45;0.45;;;21.90;71.50;;;;;;4201173;28;20553;-53
2021/07/24 06:09:11;;;;;;;0.68;0.68;;;21.90;71.40;;;;;;4192592;28;20411;-48
2021/07/24 06:11:34;;;;;;;0.52;0.52;;;21.90;71.40;;;;;;4192452;28;20052;-47
2021/07/24 06:14:13;;;;;;;0.47;0.43;;;21.90;71.30;;;;;;4192322;28;20064;-49
2021/07/24 06:16:38;;;;;;;0.00;0.00;;;21.90;71.30;;;;;;4192734;28;20119;-50
2021/07/24 06:19:01;;;;;;;2.35;0.38;;;21.90;71.20;;;;;;4192607;28;20052;-47
2021/07/24 06:21:24;;;;;;;0.30;0.30;;;21.90;71.20;;;;;;4192871;28;20062;-48
2021/07/24 06:23:46;;;;;;;0.25;0.25;;;21.90;71.20;;;;;;4192144;28;20048;-49
2021/07/24 06:26:09;;;;;;;0.00;0.00;;;21.90;71.40;;;;;;4192524;28;20044;-50
2021/07/24 06:28:31;;;;;;;1.20;0.55;;;21.90;71.30;;;;;;4192701;28;20135;-47
2021/07/24 06:30:53;;;;;;;0.00;0.00;;;21.90;71.30;;;;;;4192257;28;20415;-48
2021/07/24 06:33:16;;;;;;;0.13;0.13;;;21.90;71.20;;;;;;4189198;28;20044;-48
2021/07/24 06:35:38;;;;;;;0.90;0.43;;;21.90;71.20;;;;;;4182757;28;20415;-51
2021/07/24 06:38:01;;;;;;;0.10;0.10;;;21.90;71.10;;;;;;4175618;28;20064;-48
2021/07/24 06:40:23;;;;;;;0.10;0.10;;;21.90;71.20;;;;;;4190180;28;20059;-53
2021/07/24 06:42:46;;;;;;;0.20;0.20;;;21.90;72.80;;;;;;4192628;28;20501;-49
2021/07/24 06:45:09;;;;;;;0.00;0.00;;;21.90;72.80;;;;;;4207391;28;20047;-46
2021/07/24 06:47:31;;;;;;;0.47;0.47;;;21.90;72.40;;;;;;4205678;28;20066;-51
2021/07/24 06:49:53;;;;;;;0.00;0.00;;;21.90;72.10;;;;;;4208224;28;20076;-50
2021/07/24 06:52:15;;;;;;;0.00;0.00;;;21.90;72.00;;;;;;4208884;28;20105;-51
2021/07/24 06:54:40;;;;;;;0.05;0.05;;;22.00;71.90;;;;;;4206509;28;20059;-47
2021/07/24 06:57:03;;;;;;;0.08;0.08;;;22.00;71.80;;;;;;4201774;28;20052;-48
2021/07/24 06:59:25;;;;;;;0.00;0.00;;;22.00;71.80;;;;;;4208762;28;20056;-50
2021/07/24 07:01:47;;;;;;;0.10;0.10;;;22.10;71.70;;;;;;4208384;28;20124;-47
2021/07/24 07:04:10;;;;;;;0.22;0.22;;;22.20;71.70;;;;;;4208708;28;20097;-47
2021/07/24 07:06:32;;;;;;;0.10;0.10;;;22.20;71.60;;;;;;4208924;28;20079;-51
2021/07/24 07:08:54;;;;;;;0.08;0.08;;;22.30;71.50;;;;;;4208739;28;20516;-51
2021/07/24 07:11:18;;;;;;;0.05;0.05;;;22.40;71.30;;;;;;4207613;28;20456;-50
2021/07/24 07:13:40;;;;;;;0.75;0.75;;;22.40;71.00;;;;;;4191953;28;20052;-46
2021/07/24 07:16:06;;;;;;;1.70;0.20;;;22.50;70.80;;;;;;4194088;28;20543;-49
2021/07/24 07:18:28;;;;;;;0.10;0.10;;;22.60;70.60;;;;;;4208087;28;20040;-49
2021/07/24 07:20:51;;;;;;;0.03;0.03;;;22.60;70.30;;;;;;4208311;28;20067;-52
2021/07/24 07:23:13;;;;;;;0.00;0.00;;;22.70;70.20;;;;;;4208093;28;20486;-49
2021/07/24 07:25:38;;;;;;;0.82;0.40;;;22.70;70.10;;;;;;4206796;28;20052;-48
2021/07/24 07:28:02;;;;;;;0.52;0.52;;;22.70;70.00;;;;;;4208154;28;20126;-50
2021/07/24 07:30:25;;;;;;;1.10;1.10;;;22.90;70.00;;;;;;4207211;28;20452;-48
2021/07/24 07:32:47;;;;;;;1.85;1.65;;;22.90;70.00;;;;;;4208026;28;20055;-47
2021/07/24 07:35:10;;;;;;;4.95;1.13;;;22.90;69.80;;;;;;4206558;28;20406;-48
2021/07/24 07:37:33;;;;;;;1.08;1.08;;;22.90;69.80;;;;;;4208195;28;20055;-51
2021/07/24 07:39:55;;;;;;;1.05;1.05;;;23.00;69.60;;;;;;4207785;28;20052;-48
2021/07/24 07:42:17;;;;;;;1.27;1.23;;;23.00;69.50;;;;;;4207167;28;20044;-49
2021/07/24 07:44:40;;;;;;;0.77;0.77;;;23.00;69.40;;;;;;4207789;28;20186;-50
2021/07/24 07:47:03;;;;;;;0.38;0.38;;;23.00;69.40;;;;;;4207681;28;20512;-49
2021/07/24 07:49:25;;;;;;;1.42;1.35;;;23.10;69.30;;;;;;4207813;28;20052;-47
2021/07/24 07:51:47;;;;;;;1.52;1.45;;;23.10;69.40;;;;;;4206555;28;20534;-48
2021/07/24 07:54:10;;;;;;;0.30;0.30;;;23.10;69.50;;;;;;4207709;28;20048;-50
2021/07/24 07:56:32;;;;;;;0.52;0.52;;;23.10;70.40;;;;;;4207870;28;20047;-48
2021/07/24 07:58:54;;;;;;;0.75;0.73;;;23.10;69.60;;;;;;4206653;28;20502;-47
2021/07/24 08:01:19;;;;;;;2.03;0.63;;;23.10;69.60;;;;;;4207270;28;20043;-50
2021/07/24 08:03:43;;;;;;;3.30;1.35;;;23.10;69.50;;;;;;4191099;28;20052;-51
2021/07/24 08:06:05;;;;;;;0.20;0.20;;;23.10;69.50;;;;;;4190660;28;20045;-52
2021/07/24 08:08:27;;;;;;;0.10;0.10;;;23.10;69.50;;;;;;4191312;28;20463;-50
2021/07/24 08:10:49;;;;;;;0.25;0.25;;;23.20;69.50;;;;;;4190805;28;20068;-50
2021/07/24 08:13:13;;;;;;;0.30;0.30;;;23.20;69.30;;;;;;4190991;28;20131;-47
2021/07/24 08:15:35;;;;;;;0.47;0.47;;;23.20;69.30;;;;;;4190769;28;20048;-48
2021/07/24 08:17:59;;;;;;;0.45;0.45;;;23.20;69.20;;;;;;4190849;28;20445;-51
2021/07/24 08:20:21;;;;;;;0.10;0.10;;;23.20;69.00;;;;;;4190294;28;20071;-52
2021/07/24 08:22:43;;;;;;;0.10;0.10;;;23.20;69.00;;;;;;4190798;28;20049;-54
2021/07/24 08:25:06;;;;;;;1.02;0.70;;;23.20;68.90;;;;;;4191076;28;20055;-49
2021/07/24 08:27:28;;;;;;;0.45;0.45;;;23.20;68.80;;;;;;4189632;28;20049;-49
2021/07/24 08:29:50;;;;;;;0.40;0.40;;;23.30;69.10;;;;;;4190941;28;20464;-50
2021/07/24 08:32:13;;;;;;;0.30;0.30;;;23.30;69.70;;;;;;4190635;28;20041;-46
2021/07/24 08:34:36;;;;;;;0.00;0.00;;;23.30;69.40;;;;;;4190786;28;20056;-49
2021/07/24 08:36:58;;;;;;;0.35;0.35;;;23.40;69.10;;;;;;4191138;28;20052;-48
2021/07/24 08:39:20;;;;;;;0.22;0.15;;;23.40;69.20;;;;;;4190733;28;20059;-48
2021/07/24 08:41:42;;;;;;;0.22;0.22;;;23.50;68.90;;;;;;4204331;28;20056;-55
2021/07/24 08:44:05;;;;;;;0.57;0.57;;;23.50;68.80;;;;;;4206535;28;20056;-50
2021/07/24 08:46:27;;;;;;;1.13;1.13;;;23.50;68.60;;;;;;4206737;28;20060;-49
2021/07/24 08:48:49;;;;;;;4.65;1.20;;;23.50;68.50;;;;;;4207379;28;20406;-48
2021/07/24 08:51:17;;;;;;;0.43;0.35;;;23.50;68.30;;;;;;4207206;28;20051;-51
2021/07/24 08:53:42;;;;;;;0.00;0.00;;;23.50;68.20;;;;;;4207147;28;20036;-50
2021/07/24 08:56:13;;;;;;;0.63;0.63;;;23.60;68.20;;;;;;4190652;28;20199;-47
2021/07/24 08:58:38;;;;;;;1.73;0.93;;;23.60;68.10;;;;;;4190636;28;20049;-50
2021/07/24 09:01:01;;;;;;;0.30;0.30;;;23.60;68.00;;;;;;4189961;28;20044;-50
2021/07/24 09:03:26;;;;;;;0.47;0.35;;;23.60;67.80;;;;;;4190295;28;20060;-47
2021/07/24 09:05:50;;;;;;;0.00;0.00;;;23.60;67.80;;;;;;4190645;28;20045;-50
2021/07/24 09:08:14;;;;;;;0.00;0.00;;;23.70;67.70;;;;;;4190914;28;20044;-52
2021/07/24 09:10:36;;;;;;;0.05;0.05;;;23.70;67.50;;;;;;4190718;28;20445;-51
2021/07/24 09:12:58;;;;;;;0.93;0.93;;;23.70;67.40;;;;;;4192038;28;20474;-50
2021/07/24 09:15:20;;;;;;;0.45;0.45;;;23.70;67.40;;;;;;4193505;28;20473;-48
2021/07/24 09:17:43;;;;;;;0.13;0.13;;;23.80;67.30;;;;;;4193944;28;20052;-52
2021/07/24 09:20:06;;;;;;;0.38;0.38;;;23.80;67.20;;;;;;4193506;28;20132;-51
2021/07/24 09:22:30;;;;;;;0.73;0.73;;;23.80;67.10;;;;;;4192164;28;20044;-48
2021/07/24 09:25:06;;;;;;;1.58;1.48;;;23.80;67.10;;;;;;4193746;28;20131;-51
2021/07/24 09:27:28;;;;;;;0.65;0.30;;;23.90;67.00;;;;;;4193267;28;20052;-47
2021/07/24 09:29:50;;;;;;;0.10;0.10;;;23.90;67.00;;;;;;4193412;28;20512;-51
2021/07/24 09:32:12;;;;;;;0.70;0.70;;;23.90;67.00;;;;;;4193581;28;20052;-53
2021/07/24 09:34:41;;;;;;;0.95;0.95;;;23.90;66.80;;;;;;4192549;28;20057;-50
2021/07/24 09:37:22;;;;;;;0.70;0.70;;;24.00;66.90;;;;;;4192624;28;20128;-55
2021/07/24 09:39:45;;;;;;;1.75;1.23;;;24.00;66.60;;;;;;4192701;28;20854;-49
2021/07/24 09:42:14;;;;;;;1.33;1.30;;;24.00;66.50;;;;;;4193074;28;20078;-47
2021/07/24 09:44:37;;;;;;;0.22;0.22;;;24.00;66.40;;;;;;4192548;28;20040;-48
2021/07/24 09:46:59;;;;;;;1.52;1.45;;;24.10;66.40;;;;;;4193227;28;20045;-48
2021/07/24 09:49:21;;;;;;;0.45;0.45;;;24.10;66.20;;;;;;4192854;28;20057;-49
2021/07/24 09:51:45;;;;;;;0.32;0.32;;;24.10;66.10;;;;;;4193101;28;20053;-50
2021/07/24 09:54:23;;;;;;;0.38;0.38;;;24.10;66.10;;;;;;4193383;28;20049;-47
2021/07/24 09:56:46;;;;;;;0.05;0.05;;;24.10;66.10;;;;;;4209515;27;20518;-49
2021/07/24 09:59:20;;;;;;;0.10;0.10;;;24.20;66.10;;;;;;4209866;28;20229;-47
2021/07/24 10:01:43;;;;;;;0.50;0.50;;;24.20;65.90;;;;;;4192691;28;20052;-47
2021/07/24 10:04:05;;;;;;;0.10;0.10;;;24.30;65.90;;;;;;4192873;28;20078;-48
2021/07/24 10:06:27;;;;;;;0.85;0.73;;;24.30;65.90;;;;;;4202426;28;20059;-50
2021/07/24 10:08:53;;;;;;;0.00;0.00;;;24.30;65.80;;;;;;4209462;28;20052;-48
2021/07/24 10:11:15;;;;;;;0.05;0.05;;;24.30;65.70;;;;;;4209727;28;20075;-53
2021/07/24 10:13:39;;;;;;;0.43;0.43;;;24.30;65.70;;;;;;4209844;28;20097;-48
2021/07/24 10:16:04;;;;;;;1.38;0.77;;;24.30;65.60;;;;;;4208815;28;20070;-51
2021/07/24 10:18:27;;;;;;;0.50;0.50;;;24.30;65.60;;;;;;4207936;28;20047;-49
2021/07/24 10:20:51;;;;;;;0.00;0.00;;;24.30;65.50;;;;;;4209218;28;20502;-51
2021/07/24 10:23:15;;;;;;;0.13;0.13;;;24.30;65.60;;;;;;4202656;28;20048;-47
2021/07/24 10:25:50;;;;;;;0.10;0.10;;;24.30;65.40;;;;;;4209249;28;20067;-48
2021/07/24 10:28:13;;;;;;;0.00;0.00;;;24.40;65.40;;;;;;4209145;27;20048;-50
2021/07/24 10:30:36;;;;;;;0.10;0.10;;;24.40;65.30;;;;;;4208622;28;20064;-51
2021/07/24 10:33:00;;;;;;;0.50;0.50;;;24.40;65.20;;;;;;4192734;28;20072;-49
2021/07/24 10:35:37;;;;;;;0.10;0.10;;;24.40;65.20;;;;;;4192730;28;20595;-46
2021/07/24 10:38:32;;;;;;;0.55;0.55;;;24.40;65.20;;;;;;4192284;28;20052;-49
2021/07/24 10:40:55;;;;;;;0.75;0.75;;;24.40;65.20;;;;;;4192178;27;20048;-48
2021/07/24 10:43:55;;;;;;;0.50;0.50;;;24.50;65.20;;;;;;4192659;28;20086;-52
2021/07/24 10:46:18;;;;;;;0.70;0.70;;;24.50;65.10;;;;;;4187279;28;20048;-48
2021/07/24 10:48:44;;;;;;;0.08;0.08;;;24.50;65.10;;;;;;4194785;28;20052;-49
2021/07/24 10:51:15;;;;;;;1.25;1.25;;;24.40;65.10;;;;;;4194168;28;20506;-50
2021/07/24 10:54:05;;;;;;;0.47;0.47;;;24.50;65.10;;;;;;4209047;28;20082;-51
2021/07/24 10:56:42;;;;;;;0.15;0.15;;;24.50;65.10;;;;;;4207983;28;20067;-49
2021/07/24 10:59:23;;;;;;;0.00;0.00;;;24.50;65.10;;;;;;4208206;28;20502;-49
2021/07/24 11:01:49;;;;;;;5.47;0.47;;;24.50;65.10;;;;;;4208460;28;20051;-50
2021/07/24 11:04:39;;;;;;;0.50;0.50;;;24.50;65.10;;;;;;4208788;28;20060;-49
2021/07/24 11:07:34;;;;;;;0.03;0.03;;;24.60;65.50;;;;;;4190004;28;20426;-49
2021/07/24 11:10:06;;;;;;;0.40;0.40;;;24.60;65.30;;;;;;4188881;28;20117;-49
2021/07/24 11:12:35;;;;;;;0.70;0.70;;;24.70;65.30;;;;;;4191305;28;20063;-54
2021/07/24 11:14:58;;;;;;;0.43;0.43;;;24.70;65.10;;;;;;4191252;28;20505;-49
2021/07/24 11:17:20;;;;;;;0.43;0.43;;;24.70;64.90;;;;;;4190752;28;20060;-55
2021/07/24 11:20:07;;;;;;;0.03;0.03;;;24.70;64.90;;;;;;4190795;28;20585;-48
2021/07/24 11:22:30;;;;;;;0.00;0.00;;;24.70;64.90;;;;;;4191189;28;20044;-48
2021/07/24 11:25:26;;;;;;;0.00;0.00;;;24.80;64.90;;;;;;4191113;28;20057;-49
2021/07/24 11:27:49;;;;;;;0.63;0.63;;;24.80;64.80;;;;;;4191542;28;20131;-52
2021/07/24 11:30:12;;;;;;;6.97;1.02;;;24.80;64.70;;;;;;4190622;28;20503;-53
2021/07/24 11:32:38;;;;;;;0.08;0.08;;;24.80;64.60;;;;;;4207993;27;20044;-49
2021/07/24 11:35:05;;;;;;;0.00;0.00;;;24.80;64.50;;;;;;4203082;28;20097;-48
2021/07/24 11:37:34;;;;;;;0.25;0.25;;;24.90;64.60;;;;;;4191530;28;20064;-52
2021/07/24 11:39:56;;;;;;;0.20;0.20;;;24.90;64.60;;;;;;4206056;28;20058;-49
2021/07/24 11:42:21;;;;;;;0.00;0.00;;;24.90;64.60;;;;;;4207607;28;20117;-49
2021/07/24 11:44:50;;;;;;;0.45;0.45;;;24.90;64.60;;;;;;4207541;28;20500;-51
2021/07/24 11:47:11;;;;;;;0.40;0.40;;;24.90;64.60;;;;;;4207682;28;20140;-48
2021/07/24 11:49:37;;;;;;;0.10;0.10;;;24.90;64.70;;;;;;4191138;28;20174;-54
2021/07/24 11:52:00;;;;;;;0.03;0.03;;;24.80;64.60;;;;;;4201041;28;20098;-53
2021/07/24 11:54:33;;;;;;;0.00;0.00;;;24.90;64.60;;;;;;4207814;28;20097;-49
2021/07/24 11:56:55;;;;;;;0.90;0.60;;;24.90;64.60;;;;;;4207323;28;20126;-49
2021/07/24 11:59:18;;;;;;;0.20;0.20;;;24.90;64.60;;;;;;4207363;28;20051;-50
2021/07/24 12:01:41;;;;;;;0.25;0.25;;;24.90;64.70;;;;;;4198555;28;20052;-50
2021/07/24 12:04:05;;;;;;;0.03;0.03;;;24.90;64.70;;;;;;4205303;28;20055;-55
2021/07/24 12:06:27;;;;;;;0.05;0.05;;;24.90;64.70;;;;;;4207091;28;20075;-50
2021/07/24 12:08:53;;;;;;;0.00;0.00;;;24.90;64.70;;;;;;4206204;28;20047;-55
2021/07/24 12:11:16;;;;;;;0.20;0.20;;;24.90;64.80;;;;;;4189574;28;20502;-47
2021/07/24 12:13:39;;;;;;;0.45;0.45;;;24.90;64.70;;;;;;4177690;28;20099;-52
2021/07/24 12:16:03;;;;;;;0.20;0.20;;;25.00;64.80;;;;;;4174476;28;20057;-51
2021/07/24 12:18:25;;;;;;;0.20;0.20;;;25.00;64.80;;;;;;4190409;28;20487;-50
2021/07/24 12:20:49;;;;;;;0.65;0.65;;;25.00;64.80;;;;;;4191134;28;20816;-50
2021/07/24 12:23:19;;;;;;;0.68;0.68;;;25.00;64.80;;;;;;4190739;28;20051;-51
2021/07/24 12:25:43;;;;;;;0.20;0.20;;;25.00;65.60;;;;;;4190782;28;20487;-51
2021/07/24 12:28:05;;;;;;;0.10;0.10;;;25.00;64.60;;;;;;4190922;28;20411;-49
2021/07/24 12:30:28;;;;;;;0.10;0.10;;;25.10;64.60;;;;;;4191046;28;20669;-54
2021/07/24 12:32:50;;;;;;;0.15;0.15;;;25.10;64.60;;;;;;4190745;28;20044;-50
2021/07/24 12:35:15;;;;;;;0.00;0.00;;;25.10;64.60;;;;;;4190971;28;20056;-48
2021/07/24 12:37:38;;;;;;;0.75;0.75;;;25.10;64.50;;;;;;4189933;28;20047;-48